Waverly, Illinois
Current Conditions -  °F | °C
As of 5:55 AM on Wednesday 28 Jan 2015 (Local Time) from KIJX Reporting Station
Clear Clear  
Wind Chill: 20°   Ceiling: Unl
Heat Index: 29°   Visibility: 7mi
Dew Point: 25°   Wind: 9mph
Humidity: 84%   Direction: 140°SE
Pressure: 30.23"   Gusts: NA
Location:  39.59°N, 89.95°W
Report Text: KIJX 281155Z AUTO 14008KT 7SM CLR M02/M04 A3023 RMK AO2 T10171040 11009 21027
Loading
Personal Weather Stations






























Interactive Weather Map New forecast layout! Learn more

10-Day Weather Forecast

Advertisements
Track Severe Weather on mobile